Time;durP1;ratioP1;P1;durP2;ratioP2;P2;SDS_P1;SDS_P2;PMS_P1;PMS_P2;Temp;Humidity;BMP_temperature;BMP_pressure;BME280_temperature;BME280_humidity;BME280_pressure;Samples;Min_cycle;Max_cycle;Signal;HPM_P1;HPM_P2
2023/11/27 00:01:12;;;;;;;3.37;2.40;;;19.40;56.20;;;;;;4991224;28;20462;-67
2023/11/27 00:03:38;;;;;;;3.33;2.50;;;19.50;56.30;;;;;;4991220;28;20181;-67
2023/11/27 00:06:04;;;;;;;2.90;1.80;;;19.40;56.20;;;;;;4991142;28;20471;-68
2023/11/27 00:08:29;;;;;;;2.50;2.07;;;19.50;56.30;;;;;;4991165;28;20446;-68
2023/11/27 00:10:55;;;;;;;2.20;1.90;;;19.40;56.20;;;;;;4991060;28;20451;-67
2023/11/27 00:13:21;;;;;;;2.00;1.63;;;19.50;56.30;;;;;;4991107;28;20519;-68
2023/11/27 00:15:46;;;;;;;3.10;1.90;;;19.40;56.20;;;;;;4991018;28;20200;-67
2023/11/27 00:18:12;;;;;;;3.30;2.27;;;19.40;56.20;;;;;;4991001;28;20217;-67
2023/11/27 00:20:37;;;;;;;1.90;1.70;;;19.40;56.20;;;;;;4990968;28;20181;-67
2023/11/27 00:23:03;;;;;;;3.67;2.50;;;19.40;56.20;;;;;;4990968;28;20557;-67
2023/11/27 00:25:28;;;;;;;3.20;2.37;;;19.40;56.20;;;;;;4991119;28;20215;-68
2023/11/27 00:27:54;;;;;;;2.53;1.77;;;19.40;56.20;;;;;;4990899;28;20165;-67
2023/11/27 00:30:20;;;;;;;2.30;1.90;;;19.40;56.20;;;;;;4989402;28;20750;-67
2023/11/27 00:32:45;;;;;;;2.10;1.90;;;19.40;56.20;;;;;;4990854;28;20184;-67
2023/11/27 00:35:11;;;;;;;2.83;1.97;;;19.40;56.30;;;;;;4989510;28;20228;-67
2023/11/27 00:37:36;;;;;;;2.67;2.03;;;19.40;56.20;;;;;;4990821;28;20252;-67
2023/11/27 00:40:02;;;;;;;2.40;1.80;;;19.50;56.30;;;;;;4990812;28;20177;-67
2023/11/27 00:42:27;;;;;;;2.90;2.00;;;19.40;56.20;;;;;;4991077;28;21027;-67
2023/11/27 00:44:53;;;;;;;2.80;2.30;;;19.40;56.20;;;;;;4990679;28;20219;-67
2023/11/27 00:47:19;;;;;;;3.20;2.23;;;19.40;56.20;;;;;;4990719;28;20177;-67
2023/11/27 00:49:44;;;;;;;1.97;1.53;;;19.40;56.20;;;;;;4991708;28;20199;-67
2023/11/27 00:52:10;;;;;;;3.27;2.10;;;19.40;56.20;;;;;;4995032;28;20396;-67
2023/11/27 00:54:35;;;;;;;2.20;1.70;;;19.40;56.20;;;;;;4994576;28;20251;-67
2023/11/27 00:57:01;;;;;;;2.20;1.97;;;19.40;56.20;;;;;;4994685;28;20254;-67
2023/11/27 00:59:27;;;;;;;2.80;1.97;;;19.40;56.20;;;;;;4994849;28;20524;-66
2023/11/27 01:01:52;;;;;;;2.43;1.87;;;19.40;56.20;;;;;;4994571;28;20667;-68
2023/11/27 01:04:18;;;;;;;2.57;1.90;;;19.40;56.20;;;;;;4994442;28;20195;-67
2023/11/27 01:06:43;;;;;;;2.73;2.13;;;19.40;56.20;;;;;;4994405;28;20181;-67
2023/11/27 01:09:09;;;;;;;1.77;1.47;;;19.40;56.20;;;;;;4994359;28;20177;-67
2023/11/27 01:11:38;;;;;;;2.40;1.80;;;19.40;56.20;;;;;;4994527;28;20169;-67
2023/11/27 01:14:03;;;;;;;2.07;1.60;;;19.40;56.30;;;;;;4994304;28;20408;-67
2023/11/27 01:16:29;;;;;;;2.00;1.70;;;19.40;56.20;;;;;;4994373;28;20419;-67
2023/11/27 01:18:54;;;;;;;2.07;1.67;;;19.40;56.20;;;;;;4994202;28;20220;-67
2023/11/27 01:21:20;;;;;;;2.23;1.70;;;19.40;56.30;;;;;;4994507;28;20259;-67
2023/11/27 01:23:45;;;;;;;2.63;2.27;;;19.40;56.20;;;;;;4994104;28;20169;-67
2023/11/27 01:26:11;;;;;;;1.83;1.60;;;19.40;56.30;;;;;;4994179;28;20192;-67
2023/11/27 01:28:37;;;;;;;2.67;1.97;;;19.40;56.20;;;;;;4994205;28;20200;-67
2023/11/27 01:31:05;;;;;;;3.70;2.13;;;19.40;56.20;;;;;;4994007;28;20694;-67
2023/11/27 01:33:31;;;;;;;2.07;1.80;;;19.40;56.30;;;;;;4994028;28;20177;-67
2023/11/27 01:35:56;;;;;;;2.43;1.80;;;19.40;56.20;;;;;;4993889;28;20435;-67
2023/11/27 01:38:22;;;;;;;2.60;1.90;;;19.40;56.30;;;;;;4993938;28;20169;-68
2023/11/27 01:40:48;;;;;;;3.10;2.40;;;19.40;56.20;;;;;;4994030;28;20177;-68
2023/11/27 01:43:14;;;;;;;2.77;1.83;;;19.40;56.20;;;;;;4993937;28;20192;-67
2023/11/27 01:45:39;;;;;;;2.13;1.90;;;19.40;56.80;;;;;;4993839;28;20730;-67
2023/11/27 01:48:05;;;;;;;2.57;1.87;;;19.40;56.20;;;;;;4993799;28;20496;-67
2023/11/27 01:50:33;;;;;;;2.80;1.80;;;19.40;56.20;;;;;;4993662;28;20746;-67
2023/11/27 01:52:59;;;;;;;2.00;1.60;;;19.40;56.20;;;;;;4993598;28;20400;-67
2023/11/27 01:55:26;;;;;;;2.20;1.80;;;19.40;56.20;;;;;;4993534;28;20427;-67
2023/11/27 01:57:52;;;;;;;2.20;1.70;;;19.40;56.20;;;;;;4993633;28;20404;-67
2023/11/27 02:00:19;;;;;;;2.53;2.33;;;19.40;56.20;;;;;;4993544;28;20421;-67
2023/11/27 02:02:49;;;;;;;4.53;2.47;;;19.40;56.20;;;;;;4992400;28;20182;-67
2023/11/27 02:05:16;;;;;;;2.37;1.70;;;19.40;56.20;;;;;;4993675;28;20482;-68
2023/11/27 02:07:42;;;;;;;1.80;1.30;;;19.40;56.30;;;;;;4993444;28;20423;-67
2023/11/27 02:10:08;;;;;;;1.90;1.50;;;19.40;56.20;;;;;;4993332;28;20448;-67
2023/11/27 02:12:34;;;;;;;2.20;2.00;;;19.40;56.20;;;;;;4991960;28;20184;-67
2023/11/27 02:15:00;;;;;;;3.53;2.20;;;19.40;56.40;;;;;;4993199;28;20424;-67
2023/11/27 02:17:25;;;;;;;1.80;1.60;;;19.40;56.20;;;;;;4993309;28;20177;-67
2023/11/27 02:19:51;;;;;;;2.37;1.70;;;19.40;56.20;;;;;;4993243;28;20227;-67
2023/11/27 02:22:16;;;;;;;2.50;2.00;;;19.40;56.20;;;;;;4993110;28;20228;-68
2023/11/27 02:24:42;;;;;;;2.53;2.17;;;19.40;56.20;;;;;;4993017;28;20200;-66
2023/11/27 02:27:08;;;;;;;3.00;1.90;;;19.40;56.30;;;;;;4993087;28;20737;-68
2023/11/27 02:29:34;;;;;;;2.77;2.10;;;19.40;56.30;;;;;;4993258;28;20200;-67
2023/11/27 02:32:03;;;;;;;2.30;1.70;;;19.40;56.30;;;;;;4993244;28;20415;-67
2023/11/27 02:34:28;;;;;;;2.77;2.00;;;19.40;56.30;;;;;;4992884;28;20718;-68
2023/11/27 02:36:54;;;;;;;1.70;1.60;;;19.40;56.30;;;;;;4992977;28;20443;-67
2023/11/27 02:39:21;;;;;;;2.70;1.93;;;19.40;56.30;;;;;;4992913;28;20301;-67
2023/11/27 02:41:46;;;;;;;2.43;1.53;;;19.40;56.30;;;;;;4992839;28;20189;-67
2023/11/27 02:44:12;;;;;;;2.50;1.80;;;19.40;56.30;;;;;;4992753;28;20435;-68
2023/11/27 02:46:37;;;;;;;1.73;1.33;;;19.40;56.30;;;;;;4992752;28;20598;-67
2023/11/27 02:49:03;;;;;;;1.70;1.60;;;19.40;56.30;;;;;;4992591;28;20177;-67
2023/11/27 02:51:28;;;;;;;2.73;1.93;;;19.40;56.30;;;;;;4992706;28;20181;-68
2023/11/27 02:53:54;;;;;;;2.60;1.83;;;19.40;56.50;;;;;;4992586;28;20543;-67
2023/11/27 02:56:20;;;;;;;2.87;2.13;;;19.40;56.30;;;;;;4992598;28;20259;-66
2023/11/27 02:58:45;;;;;;;3.17;1.90;;;19.40;56.30;;;;;;4992472;28;20181;-67
2023/11/27 03:01:11;;;;;;;2.30;1.57;;;19.40;56.30;;;;;;4992531;28;20556;-67
2023/11/27 03:03:37;;;;;;;2.23;1.80;;;19.40;56.30;;;;;;4992484;28;20243;-67
2023/11/27 03:06:03;;;;;;;2.33;1.80;;;19.40;56.30;;;;;;4992280;28;20327;-67
2023/11/27 03:08:29;;;;;;;2.30;1.90;;;19.40;56.30;;;;;;4992660;28;20437;-68
2023/11/27 03:10:56;;;;;;;1.53;1.37;;;19.40;56.30;;;;;;4992271;28;20455;-67
2023/11/27 03:13:23;;;;;;;2.40;1.70;;;19.40;56.30;;;;;;4992102;28;20172;-67
2023/11/27 03:15:49;;;;;;;2.40;1.50;;;19.40;56.30;;;;;;4992205;28;20440;-67
2023/11/27 03:18:14;;;;;;;1.50;1.40;;;19.40;56.30;;;;;;4992174;28;20467;-67
2023/11/27 03:20:40;;;;;;;3.33;1.93;;;19.40;56.80;;;;;;4990784;28;21018;-67
2023/11/27 03:23:05;;;;;;;1.70;1.37;;;19.40;56.30;;;;;;4992322;28;20173;-67
2023/11/27 03:25:31;;;;;;;1.90;1.67;;;19.40;56.30;;;;;;4992237;28;20232;-67
2023/11/27 03:27:56;;;;;;;2.43;1.60;;;19.40;56.30;;;;;;4991971;28;20260;-67
2023/11/27 03:30:22;;;;;;;1.70;1.40;;;19.40;56.30;;;;;;4991896;28;20201;-67
2023/11/27 03:32:48;;;;;;;2.40;1.70;;;19.40;56.30;;;;;;4991871;28;20276;-67
2023/11/27 03:35:14;;;;;;;2.43;1.80;;;19.40;56.30;;;;;;4991855;28;20251;-67
2023/11/27 03:37:39;;;;;;;2.17;1.70;;;19.40;56.30;;;;;;4991828;28;20598;-68
2023/11/27 03:40:06;;;;;;;3.10;1.67;;;19.40;56.30;;;;;;4991826;28;20191;-67
2023/11/27 03:42:32;;;;;;;2.50;1.70;;;19.40;56.30;;;;;;4991756;28;20920;-67
2023/11/27 03:44:58;;;;;;;2.23;1.70;;;19.40;56.30;;;;;;4991570;28;20447;-67
2023/11/27 03:47:23;;;;;;;2.13;1.60;;;19.40;56.30;;;;;;4991638;28;20633;-67
2023/11/27 03:49:49;;;;;;;1.77;1.67;;;19.40;56.30;;;;;;4991516;28;20491;-67
2023/11/27 03:52:15;;;;;;;1.60;1.30;;;19.40;56.30;;;;;;4991540;28;20177;-67
2023/11/27 03:54:41;;;;;;;2.23;1.50;;;19.40;56.30;;;;;;4991447;28;20751;-68
2023/11/27 03:57:06;;;;;;;2.13;1.70;;;19.40;56.30;;;;;;4991548;28;20556;-67
2023/11/27 03:59:32;;;;;;;2.20;1.70;;;19.40;56.30;;;;;;4991471;28;20181;-67
2023/11/27 04:01:58;;;;;;;2.43;1.80;;;19.30;56.20;;;;;;4991393;28;20588;-67
2023/11/27 04:04:24;;;;;;;1.50;1.30;;;19.40;56.30;;;;;;4991224;28;20208;-67
2023/11/27 04:06:49;;;;;;;1.80;1.50;;;19.40;56.30;;;;;;4991262;28;20430;-67
2023/11/27 04:09:20;;;;;;;1.63;1.53;;;19.40;56.30;;;;;;4991118;28;20594;-67
2023/11/27 04:11:46;;;;;;;2.00;1.70;;;19.40;56.30;;;;;;4991291;28;20154;-67
2023/11/27 04:14:12;;;;;;;2.03;1.83;;;19.40;56.30;;;;;;4991176;28;20567;-67
2023/11/27 04:16:37;;;;;;;2.40;1.97;;;19.40;56.30;;;;;;4991226;28;20180;-68
2023/11/27 04:19:04;;;;;;;2.97;1.90;;;19.40;56.30;;;;;;4991174;28;20420;-67
2023/11/27 04:21:30;;;;;;;1.90;1.67;;;19.40;56.30;;;;;;4991093;28;20177;-68
2023/11/27 04:23:55;;;;;;;2.10;1.90;;;19.40;56.30;;;;;;4990560;28;20421;-67
2023/11/27 04:26:21;;;;;;;2.33;1.50;;;19.40;56.30;;;;;;4990709;28;20264;-67
2023/11/27 04:28:48;;;;;;;1.93;1.50;;;19.30;56.20;;;;;;4990994;28;20675;-67
2023/11/27 04:31:13;;;;;;;1.63;1.40;;;19.30;56.20;;;;;;4990948;28;20196;-67
2023/11/27 04:33:39;;;;;;;2.33;1.60;;;19.40;56.30;;;;;;5008578;28;20423;-68
2023/11/27 04:36:05;;;;;;;1.80;1.40;;;19.30;56.20;;;;;;5010397;28;20206;-67
2023/11/27 04:38:31;;;;;;;2.03;1.50;;;19.40;56.90;;;;;;5010486;28;20694;-67
2023/11/27 04:40:56;;;;;;;2.10;1.90;;;19.30;56.20;;;;;;5010431;28;20514;-67
2023/11/27 04:43:22;;;;;;;1.87;1.23;;;19.40;56.30;;;;;;5010383;28;20211;-67
2023/11/27 04:45:48;;;;;;;1.43;1.33;;;19.40;56.30;;;;;;5010303;28;20188;-67
2023/11/27 04:48:14;;;;;;;1.93;1.60;;;19.40;56.30;;;;;;5010379;28;20187;-68
2023/11/27 04:50:39;;;;;;;1.60;1.50;;;19.30;56.20;;;;;;5010557;28;20204;-67
2023/11/27 04:53:05;;;;;;;2.00;1.70;;;19.40;56.30;;;;;;5010349;28;20181;-68
2023/11/27 04:55:32;;;;;;;2.17;1.60;;;19.30;56.30;;;;;;5010320;28;20196;-67
2023/11/27 04:57:58;;;;;;;1.60;1.50;;;19.40;56.30;;;;;;5010334;28;20549;-67
2023/11/27 05:00:23;;;;;;;2.27;1.90;;;19.40;56.30;;;;;;5010303;28;20461;-67
2023/11/27 05:02:49;;;;;;;1.43;1.30;;;19.40;56.30;;;;;;5010254;28;20203;-67
2023/11/27 05:05:15;;;;;;;1.60;1.33;;;19.40;56.30;;;;;;5010460;28;20577;-67
2023/11/27 05:07:41;;;;;;;2.53;1.40;;;19.40;56.30;;;;;;5008963;28;20347;-67
2023/11/27 05:10:07;;;;;;;1.60;1.23;;;19.30;56.20;;;;;;5010151;28;20228;-67
2023/11/27 05:12:33;;;;;;;1.97;1.73;;;19.30;56.20;;;;;;5010372;28;20419;-67
2023/11/27 05:14:59;;;;;;;2.20;1.50;;;19.30;56.20;;;;;;5009973;28;20442;-67
2023/11/27 05:17:24;;;;;;;1.40;1.30;;;19.30;56.20;;;;;;5010098;28;20643;-67
2023/11/27 05:19:50;;;;;;;1.90;1.50;;;19.30;56.20;;;;;;5010189;28;20547;-67
2023/11/27 05:22:16;;;;;;;1.87;1.70;;;19.30;56.30;;;;;;5010625;28;20385;-68
2023/11/27 05:24:41;;;;;;;1.80;1.37;;;19.30;56.80;;;;;;5010050;28;20196;-67
2023/11/27 05:27:07;;;;;;;2.93;1.70;;;19.30;56.30;;;;;;5010012;28;20438;-67
2023/11/27 05:29:33;;;;;;;1.60;1.20;;;19.30;56.30;;;;;;5009685;28;20198;-68
2023/11/27 05:31:58;;;;;;;1.90;1.17;;;19.30;56.30;;;;;;5009410;28;20180;-67
2023/11/27 05:34:24;;;;;;;1.83;1.33;;;19.30;56.30;;;;;;5009941;28;20610;-68
2023/11/27 05:36:49;;;;;;;1.73;1.47;;;19.30;56.30;;;;;;5012875;28;20177;-67
2023/11/27 05:39:15;;;;;;;2.00;1.50;;;19.30;56.30;;;;;;5013640;28;20259;-67
2023/11/27 05:41:41;;;;;;;1.87;1.60;;;19.30;56.30;;;;;;5013580;28;20662;-67
2023/11/27 05:44:07;;;;;;;1.70;1.17;;;19.30;56.30;;;;;;5013641;28;20569;-67
2023/11/27 05:46:33;;;;;;;1.50;1.17;;;19.30;56.30;;;;;;5013499;28;20164;-67
2023/11/27 05:48:59;;;;;;;1.40;1.20;;;19.30;56.30;;;;;;5013453;28;20766;-67
2023/11/27 05:51:25;;;;;;;1.90;1.60;;;19.30;56.30;;;;;;5013125;28;20466;-67
2023/11/27 05:53:51;;;;;;;1.50;1.33;;;19.30;56.30;;;;;;5013226;28;20168;-68
2023/11/27 05:56:17;;;;;;;1.93;1.30;;;19.30;56.30;;;;;;5013342;28;20434;-67
2023/11/27 05:58:42;;;;;;;1.50;1.27;;;19.30;56.30;;;;;;5013213;28;20291;-67
2023/11/27 06:01:08;;;;;;;1.47;1.30;;;19.30;56.30;;;;;;5013200;28;20184;-67
2023/11/27 06:03:36;;;;;;;2.23;1.40;;;19.30;56.30;;;;;;5013153;28;20176;-66
2023/11/27 06:06:05;;;;;;;2.03;1.70;;;19.30;56.30;;;;;;5013056;28;20734;-67
2023/11/27 06:08:31;;;;;;;2.37;1.60;;;19.30;56.30;;;;;;5011736;28;20427;-66
2023/11/27 06:10:56;;;;;;;1.70;1.40;;;19.30;56.30;;;;;;5004971;28;20882;-66
2023/11/27 06:13:22;;;;;;;2.07;1.30;;;19.30;56.30;;;;;;4992944;28;20169;-68
2023/11/27 06:15:47;;;;;;;2.03;1.33;;;19.30;56.30;;;;;;4993501;28;20255;-67
2023/11/27 06:18:16;;;;;;;1.87;1.40;;;19.30;56.30;;;;;;4993514;28;20200;-67
2023/11/27 06:20:42;;;;;;;1.83;1.50;;;19.30;56.30;;;;;;4992833;28;20188;-67
2023/11/27 06:23:07;;;;;;;1.73;1.20;;;19.30;56.30;;;;;;4993128;28;20922;-67
2023/11/27 06:25:35;;;;;;;2.70;1.20;;;19.30;56.30;;;;;;4993015;28;20213;-67
2023/11/27 06:28:01;;;;;;;1.23;1.10;;;19.30;56.30;;;;;;4993214;28;20198;-67
2023/11/27 06:30:28;;;;;;;2.40;1.80;;;19.30;56.30;;;;;;4993327;28;20870;-67
2023/11/27 06:32:53;;;;;;;2.50;1.50;;;19.30;56.30;;;;;;4993061;28;20416;-67
2023/11/27 06:35:19;;;;;;;2.13;1.57;;;19.30;56.30;;;;;;4993060;28;20442;-67
2023/11/27 06:37:44;;;;;;;2.30;1.33;;;19.30;56.30;;;;;;4993012;28;20173;-68
2023/11/27 06:40:11;;;;;;;2.37;1.77;;;19.30;56.30;;;;;;4993247;28;20973;-68
2023/11/27 06:42:37;;;;;;;1.57;1.30;;;19.30;56.30;;;;;;4992852;28;20280;-67
2023/11/27 06:45:06;;;;;;;1.43;1.20;;;19.30;56.30;;;;;;4992801;28;20571;-67
2023/11/27 06:47:32;;;;;;;2.73;1.40;;;19.30;56.30;;;;;;4992236;28;20185;-67
2023/11/27 06:49:58;;;;;;;1.90;1.40;;;19.30;56.30;;;;;;4993025;28;20460;-66
2023/11/27 06:52:23;;;;;;;1.70;1.20;;;19.30;56.30;;;;;;4992749;28;20565;-66
2023/11/27 06:54:49;;;;;;;1.70;1.50;;;19.40;56.30;;;;;;4992686;28;20211;-67
2023/11/27 06:57:15;;;;;;;1.70;1.37;;;19.40;56.30;;;;;;4992688;28;20592;-67
2023/11/27 06:59:40;;;;;;;1.30;1.20;;;19.40;56.30;;;;;;4991337;28;20200;-66
2023/11/27 07:02:06;;;;;;;2.30;1.40;;;19.40;56.20;;;;;;4992522;28;20187;-68
2023/11/27 07:04:32;;;;;;;1.33;1.07;;;19.40;56.20;;;;;;4992904;28;20211;-67
2023/11/27 07:06:57;;;;;;;1.73;1.63;;;19.40;56.20;;;;;;4993380;28;20224;-68
2023/11/27 07:09:23;;;;;;;1.40;1.17;;;19.40;56.20;;;;;;4993101;28;20181;-67
2023/11/27 07:11:50;;;;;;;1.90;1.50;;;19.40;56.20;;;;;;4993067;28;20269;-67
2023/11/27 07:14:15;;;;;;;1.80;1.30;;;19.50;56.30;;;;;;4992306;28;20439;-67
2023/11/27 07:16:42;;;;;;;1.40;1.10;;;19.50;56.20;;;;;;4992331;28;20420;-67
2023/11/27 07:19:08;;;;;;;1.63;1.27;;;19.50;56.20;;;;;;4992282;28;20644;-67
2023/11/27 07:21:34;;;;;;;2.53;1.57;;;19.50;56.20;;;;;;4992219;28;20918;-67
2023/11/27 07:23:59;;;;;;;1.50;1.40;;;19.50;56.20;;;;;;4992219;28;20420;-67
2023/11/27 07:26:26;;;;;;;1.97;1.17;;;19.60;56.20;;;;;;4992054;28;20193;-67
2023/11/27 07:28:53;;;;;;;1.87;1.20;;;19.60;56.20;;;;;;4992057;28;20278;-66
2023/11/27 07:31:19;;;;;;;1.67;1.30;;;19.60;56.20;;;;;;4992035;28;20882;-67
2023/11/27 07:33:44;;;;;;;1.30;1.00;;;19.60;56.20;;;;;;4992110;28;20404;-67
2023/11/27 07:36:11;;;;;;;1.53;1.30;;;19.60;56.20;;;;;;4991933;28;20631;-67
2023/11/27 07:38:37;;;;;;;1.50;1.23;;;19.60;56.20;;;;;;4991882;28;20180;-66
2023/11/27 07:41:05;;;;;;;1.43;1.07;;;19.60;56.20;;;;;;4991904;28;20408;-67
2023/11/27 07:43:31;;;;;;;1.40;1.17;;;19.60;56.10;;;;;;4992116;28;20510;-68
2023/11/27 07:45:57;;;;;;;1.70;1.13;;;19.60;56.10;;;;;;4991702;28;20440;-68
2023/11/27 07:48:22;;;;;;;1.70;1.33;;;19.60;56.10;;;;;;4991787;28;20784;-67
2023/11/27 07:50:50;;;;;;;1.53;1.23;;;19.60;56.10;;;;;;4991881;28;20274;-67
2023/11/27 07:53:18;;;;;;;1.30;1.10;;;19.60;56.10;;;;;;4991668;28;20614;-67
2023/11/27 07:55:43;;;;;;;1.40;1.00;;;19.60;56.10;;;;;;4991534;28;20431;-67
2023/11/27 07:58:09;;;;;;;2.33;1.30;;;19.60;56.10;;;;;;4991557;28;20785;-68
2023/11/27 08:00:35;;;;;;;2.10;1.47;;;19.70;56.10;;;;;;4990954;28;20185;-67
2023/11/27 08:03:00;;;;;;;1.70;1.10;;;19.70;56.10;;;;;;4991450;28;20208;-68
2023/11/27 08:05:27;;;;;;;1.30;1.20;;;19.70;56.10;;;;;;4991394;28;20212;-67
2023/11/27 08:07:53;;;;;;;1.67;1.40;;;19.70;56.10;;;;;;4991422;28;20922;-67
2023/11/27 08:10:19;;;;;;;1.83;1.50;;;19.70;56.20;;;;;;4991256;28;20942;-67
2023/11/27 08:12:45;;;;;;;2.40;1.60;;;19.70;56.10;;;;;;4991228;28;20457;-67
2023/11/27 08:15:28;;;;;;;1.60;1.30;;;19.70;56.20;;;;;;4991272;28;20535;-68
2023/11/27 08:18:00;;;;;;;1.70;1.30;;;19.70;56.20;;;;;;4991188;28;20190;-68
2023/11/27 08:20:29;;;;;;;1.33;1.10;;;19.70;56.20;;;;;;4991223;28;20552;-67
2023/11/27 08:22:57;;;;;;;1.40;1.13;;;19.70;56.20;;;;;;4991187;28;20502;-67
2023/11/27 08:25:24;;;;;;;1.80;1.20;;;19.70;56.20;;;;;;4990887;28;20454;-68
2023/11/27 08:27:52;;;;;;;2.67;1.23;;;19.70;56.20;;;;;;4991176;28;20471;-68
2023/11/27 08:30:18;;;;;;;2.10;1.63;;;19.70;56.20;;;;;;4991076;28;20827;-68
2023/11/27 08:32:43;;;;;;;1.57;1.30;;;19.70;56.20;;;;;;4991028;28;20426;-68
2023/11/27 08:35:11;;;;;;;2.40;1.10;;;19.70;56.30;;;;;;4990985;28;20195;-68
2023/11/27 08:37:37;;;;;;;5.07;1.33;;;19.70;56.30;;;;;;4991054;28;20726;-67
2023/11/27 08:40:09;;;;;;;1.93;1.53;;;19.70;56.30;;;;;;4991327;28;20512;-66
2023/11/27 08:42:35;;;;;;;1.37;1.27;;;19.70;56.30;;;;;;4991080;28;21326;-66
2023/11/27 08:45:16;;;;;;;1.77;1.17;;;19.70;56.40;;;;;;4990946;28;20977;-65
2023/11/27 08:47:51;;;;;;;4.70;1.37;;;19.70;56.40;;;;;;4989615;28;20423;-68
2023/11/27 08:50:20;;;;;;;2.40;1.10;;;19.70;56.30;;;;;;4990879;28;20522;-67
2023/11/27 08:52:46;;;;;;;3.17;1.13;;;19.70;56.40;;;;;;4991037;28;20419;-67
2023/11/27 08:55:18;;;;;;;2.10;1.30;;;19.70;56.40;;;;;;4990791;28;20436;-67
2023/11/27 08:57:47;;;;;;;1.33;1.10;;;19.70;56.40;;;;;;4989636;28;20172;-67
2023/11/27 09:00:17;;;;;;;4.00;1.17;;;19.70;56.40;;;;;;4990777;28;20412;-67
2023/11/27 09:02:43;;;;;;;1.83;1.23;;;19.70;56.40;;;;;;4991017;28;20397;-67
2023/11/27 09:05:08;;;;;;;1.40;1.20;;;19.70;56.40;;;;;;4990636;28;20443;-68
2023/11/27 09:07:34;;;;;;;1.83;1.20;;;19.70;56.40;;;;;;4990779;28;20557;-67
2023/11/27 09:10:02;;;;;;;1.70;1.33;;;19.70;56.40;;;;;;4990701;28;20197;-68
2023/11/27 09:12:28;;;;;;;1.90;1.50;;;19.70;56.40;;;;;;4993210;28;20260;-67
2023/11/27 09:14:54;;;;;;;2.43;1.20;;;19.70;56.70;;;;;;4994469;28;20514;-67
2023/11/27 09:17:20;;;;;;;1.50;1.27;;;19.70;56.40;;;;;;4994468;28;20411;-67
2023/11/27 09:19:46;;;;;;;1.20;1.00;;;19.70;56.40;;;;;;4994758;28;20175;-66
2023/11/27 09:22:11;;;;;;;1.87;1.27;;;19.70;56.40;;;;;;4994449;28;20494;-67
2023/11/27 09:24:38;;;;;;;1.50;1.13;;;19.70;56.50;;;;;;4994593;28;20228;-68
2023/11/27 09:27:06;;;;;;;1.27;1.00;;;19.70;56.40;;;;;;4994295;28;20184;-68
2023/11/27 09:29:34;;;;;;;1.73;1.27;;;19.70;56.50;;;;;;4994331;28;20452;-68
2023/11/27 09:32:03;;;;;;;2.97;1.50;;;19.70;56.40;;;;;;4994344;28;20418;-68
2023/11/27 09:34:29;;;;;;;2.30;1.10;;;19.70;56.50;;;;;;4994184;28;20432;-67
2023/11/27 09:36:55;;;;;;;1.80;1.50;;;19.70;56.50;;;;;;4994259;28;20903;-68
2023/11/27 09:39:21;;;;;;;1.40;1.07;;;19.70;56.50;;;;;;4994218;28;20266;-68
2023/11/27 09:41:46;;;;;;;1.70;1.10;;;19.70;56.50;;;;;;4994142;28;20518;-68
2023/11/27 09:44:13;;;;;;;2.47;1.20;;;19.70;56.50;;;;;;4993985;28;20220;-67
2023/11/27 09:46:42;;;;;;;4.13;2.10;;;19.70;56.50;;;;;;4994049;28;20169;-67
2023/11/27 09:49:10;;;;;;;1.60;0.97;;;19.70;56.50;;;;;;4994158;28;20462;-67
2023/11/27 09:51:38;;;;;;;1.80;1.20;;;19.70;56.50;;;;;;4993858;28;20455;-68
2023/11/27 09:54:06;;;;;;;1.43;1.03;;;19.70;56.50;;;;;;4993866;28;20567;-67
2023/11/27 09:56:33;;;;;;;2.30;1.40;;;19.70;56.50;;;;;;4993932;28;20419;-67
2023/11/27 09:59:01;;;;;;;1.70;1.20;;;19.70;56.50;;;;;;4993874;28;20412;-68
2023/11/27 10:01:29;;;;;;;1.20;1.10;;;19.70;56.50;;;;;;4993806;28;20446;-68
2023/11/27 10:04:01;;;;;;;1.30;1.03;;;19.70;56.50;;;;;;4993617;28;20535;-67
2023/11/27 10:06:32;;;;;;;1.80;1.03;;;19.70;56.50;;;;;;4993818;28;20392;-68
2023/11/27 10:09:07;;;;;;;1.60;1.03;;;19.70;56.50;;;;;;4993619;28;20791;-68
2023/11/27 10:11:34;;;;;;;1.90;1.27;;;19.70;56.50;;;;;;4993518;28;20451;-67
2023/11/27 10:14:10;;;;;;;1.53;1.10;;;19.70;56.50;;;;;;4993556;28;20412;-67
2023/11/27 10:16:36;;;;;;;2.17;1.23;;;19.70;56.50;;;;;;4993603;28;20455;-68
2023/11/27 10:19:19;;;;;;;2.40;1.60;;;19.70;56.50;;;;;;4993863;28;20415;-66
2023/11/27 10:21:45;;;;;;;1.20;0.90;;;19.70;56.50;;;;;;4993281;28;20890;-68
2023/11/27 10:24:11;;;;;;;1.70;1.10;;;19.70;56.40;;;;;;4992973;28;20439;-67
2023/11/27 10:26:40;;;;;;;1.17;1.00;;;19.70;56.40;;;;;;4991964;28;20432;-68
2023/11/27 10:29:09;;;;;;;1.67;1.20;;;19.70;56.40;;;;;;4993469;28;20664;-67
2023/11/27 10:31:40;;;;;;;1.30;1.07;;;19.70;56.40;;;;;;4993300;28;20456;-68
2023/11/27 10:34:07;;;;;;;1.13;0.93;;;19.70;56.40;;;;;;4993245;28;20780;-67
2023/11/27 10:36:33;;;;;;;1.50;1.00;;;19.70;56.40;;;;;;4993593;28;20428;-67
2023/11/27 10:39:15;;;;;;;1.30;1.00;;;19.70;56.60;;;;;;4993422;28;20517;-68
2023/11/27 10:41:44;;;;;;;1.57;0.93;;;19.70;56.30;;;;;;4993399;28;20392;-67
2023/11/27 10:44:12;;;;;;;2.40;1.20;;;19.70;56.40;;;;;;4992930;28;20460;-67
2023/11/27 10:46:40;;;;;;;1.10;0.80;;;19.70;56.30;;;;;;4992979;28;20416;-67
2023/11/27 10:49:09;;;;;;;1.37;1.00;;;19.80;56.40;;;;;;4992971;28;20411;-67
2023/11/27 10:51:35;;;;;;;1.23;1.10;;;19.80;56.40;;;;;;4992956;28;20974;-67
2023/11/27 10:54:01;;;;;;;1.50;1.10;;;19.70;56.40;;;;;;4992818;28;20416;-67
2023/11/27 10:56:30;;;;;;;1.27;1.00;;;19.80;56.40;;;;;;4993113;28;20779;-67
2023/11/27 10:59:05;;;;;;;1.80;1.50;;;19.80;56.40;;;;;;4993043;28;20757;-68
2023/11/27 11:01:41;;;;;;;1.47;1.20;;;19.80;56.40;;;;;;4991354;28;20894;-68
2023/11/27 11:04:24;;;;;;;1.57;0.87;;;19.80;56.50;;;;;;4992583;28;20428;-68
2023/11/27 11:06:55;;;;;;;1.17;1.00;;;19.80;56.50;;;;;;4992649;28;20412;-68
2023/11/27 11:09:25;;;;;;;1.43;1.10;;;19.80;56.50;;;;;;4992766;28;20416;-66
2023/11/27 11:11:52;;;;;;;1.70;1.20;;;19.80;56.50;;;;;;4992970;28;20396;-66
2023/11/27 11:14:21;;;;;;;1.20;1.00;;;19.80;56.50;;;;;;4992377;28;20424;-67
2023/11/27 11:17:08;;;;;;;1.17;0.83;;;19.80;56.50;;;;;;4992480;28;20428;-67
2023/11/27 11:20:01;;;;;;;1.87;1.20;;;19.80;56.40;;;;;;4992316;28;20381;-68
2023/11/27 11:22:32;;;;;;;1.73;1.33;;;19.80;56.50;;;;;;4992574;28;21004;-68
2023/11/27 11:25:19;;;;;;;1.67;1.30;;;19.80;56.50;;;;;;4992904;28;20428;-67
2023/11/27 11:28:04;;;;;;;1.47;1.07;;;19.80;57.10;;;;;;4993048;28;20459;-67
2023/11/27 11:30:31;;;;;;;1.73;1.10;;;19.80;56.60;;;;;;4992993;28;20447;-67
2023/11/27 11:32:57;;;;;;;1.70;1.20;;;19.80;56.60;;;;;;4993042;28;20495;-66
2023/11/27 11:35:26;;;;;;;2.13;1.10;;;19.80;56.60;;;;;;4992839;28;20507;-68
2023/11/27 11:37:52;;;;;;;1.60;1.23;;;19.80;56.60;;;;;;4992766;28;20260;-67
2023/11/27 11:40:18;;;;;;;1.40;1.00;;;19.80;56.60;;;;;;4992993;28;20499;-68
2023/11/27 11:42:44;;;;;;;1.40;1.10;;;19.80;56.60;;;;;;4992945;28;20652;-68
2023/11/27 11:45:19;;;;;;;1.50;1.00;;;19.80;56.60;;;;;;4992841;28;20709;-67
2023/11/27 11:48:12;;;;;;;1.03;0.87;;;19.80;56.60;;;;;;4991671;28;20447;-67
2023/11/27 11:50:42;;;;;;;1.20;0.97;;;19.80;56.60;;;;;;4991444;28;20562;-68
2023/11/27 11:53:13;;;;;;;1.70;1.17;;;19.80;56.60;;;;;;4992568;28;20412;-68
2023/11/27 11:55:39;;;;;;;1.63;1.10;;;19.80;56.60;;;;;;4991849;28;20432;-68
2023/11/27 11:58:07;;;;;;;1.60;1.20;;;19.80;56.60;;;;;;4991889;28;20490;-68
2023/11/27 12:00:42;;;;;;;2.30;1.47;;;19.80;56.60;;;;;;4992002;28;20412;-66
2023/11/27 12:03:15;;;;;;;1.90;1.60;;;19.80;56.60;;;;;;4991689;28;20396;-68
2023/11/27 12:05:50;;;;;;;2.93;2.23;;;19.80;56.60;;;;;;4991693;28;20436;-67
2023/11/27 12:08:28;;;;;;;2.47;1.70;;;19.80;56.60;;;;;;4991740;28;20384;-67
2023/11/27 12:10:55;;;;;;;5.17;3.47;;;19.80;56.60;;;;;;4991556;28;20455;-67
2023/11/27 12:13:23;;;;;;;5.53;2.47;;;19.80;56.60;;;;;;4991611;28;20908;-66
2023/11/27 12:15:56;;;;;;;4.40;2.70;;;19.80;56.70;;;;;;4991498;28;20432;-68
2023/11/27 12:18:22;;;;;;;5.17;2.87;;;19.80;56.60;;;;;;4991580;28;20462;-68
2023/11/27 12:20:49;;;;;;;4.70;2.80;;;19.80;56.60;;;;;;4991559;28;20830;-66
2023/11/27 12:23:15;;;;;;;2.67;2.00;;;19.80;56.60;;;;;;4991391;28;20499;-67
2023/11/27 12:25:41;;;;;;;8.67;4.77;;;19.80;56.60;;;;;;4991305;28;20543;-67
2023/11/27 12:28:08;;;;;;;8.40;3.83;;;19.80;56.70;;;;;;4991336;28;20186;-68
2023/11/27 12:30:34;;;;;;;8.73;3.67;;;19.80;56.70;;;;;;4991226;28;20502;-67
2023/11/27 12:33:04;;;;;;;5.93;3.63;;;19.80;56.70;;;;;;4991372;28;20468;-67
2023/11/27 12:35:33;;;;;;;8.03;3.77;;;19.80;56.70;;;;;;4991273;28;20887;-67
2023/11/27 12:38:04;;;;;;;9.97;4.57;;;19.80;56.70;;;;;;4991080;28;20412;-68
2023/11/27 12:40:33;;;;;;;11.77;5.00;;;19.80;56.70;;;;;;4991536;28;20783;-67
2023/11/27 12:43:00;;;;;;;10.77;5.17;;;19.80;56.70;;;;;;4991523;28;20454;-68
2023/11/27 12:45:27;;;;;;;10.60;4.80;;;19.80;56.70;;;;;;4990891;28;20440;-68